Time;durP1;ratioP1;P1;durP2;ratioP2;P2;SDS_P1;SDS_P2;PMS_P1;PMS_P2;Temp;Humidity;BMP_temperature;BMP_pressure;BME280_temperature;BME280_humidity;BME280_pressure;Samples;Min_cycle;Max_cycle;Signal;HPM_P1;HPM_P2
2022/09/02 00:01:13;;;;;;;11.50;6.30;;;;;;;8.47;100.00;101310.03;5028634;28;20029;-77
2022/09/02 00:03:38;;;;;;;;;;;;;;;8.48;100.00;101319.75;4997439;28;20422;-76
2022/09/02 00:06:04;;;;;;;12.30;6.22;;;;;;;8.36;100.00;101311.00;4997674;28;20004;-77
2022/09/02 00:08:31;;;;;;;11.77;6.68;;;;;;;8.30;100.00;101301.75;5014998;28;20033;-76
2022/09/02 00:10:57;;;;;;;8.40;5.65;;;;;;;8.28;100.00;101314.47;5020736;28;20115;-77
2022/09/02 00:13:23;;;;;;;11.13;6.35;;;;;;;8.15;100.00;101296.03;4997328;28;20037;-78
2022/09/02 00:15:49;;;;;;;8.43;6.32;;;;;;;8.14;100.00;101301.53;4997448;28;20431;-77
2022/09/02 00:18:19;;;;;;;10.07;5.75;;;;;;;8.08;100.00;101302.13;5013090;28;20022;-77
2022/09/02 00:20:46;;;;;;;9.05;5.30;;;;;;;8.09;100.00;101301.97;5024330;28;20041;-76
2022/09/02 00:23:12;;;;;;;10.55;5.90;;;;;;;8.12;100.00;101296.34;5001131;28;20033;-76
2022/09/02 00:25:38;;;;;;;9.82;5.85;;;;;;;8.14;100.00;101298.84;5004384;28;20607;-76
2022/09/02 00:28:04;;;;;;;10.57;6.35;;;;;;;8.15;100.00;101303.22;4993581;28;20041;-76
2022/09/02 00:30:31;;;;;;;12.27;5.97;;;;;;;8.15;100.00;101297.88;5029379;28;20037;-77
2022/09/02 00:32:57;;;;;;;12.65;6.20;;;;;;;8.04;100.00;101277.44;5025994;28;20033;-77
2022/09/02 00:35:23;;;;;;;10.98;6.90;;;;;;;8.10;100.00;101284.06;4997164;28;20034;-76
2022/09/02 00:37:51;;;;;;;14.20;6.25;;;;;;;8.09;100.00;101280.53;4998509;28;20491;-76
2022/09/02 00:40:17;;;;;;;15.90;7.80;;;;;;;8.13;100.00;101279.25;5029263;28;20475;-76
2022/09/02 00:42:42;;;;;;;14.95;6.90;;;;;;;8.21;100.00;101293.75;5013996;28;20055;-78
2022/09/02 00:45:09;;;;;;;13.90;6.10;;;;;;;7.91;100.00;101256.38;4995526;28;20531;-77
2022/09/02 00:47:35;;;;;;;10.60;5.93;;;;;;;8.12;100.00;101290.09;5012013;28;20160;-76
2022/09/02 00:50:05;;;;;;;15.32;7.05;;;;;;;8.10;100.00;101289.44;4992523;28;20174;-77
2022/09/02 00:52:33;;;;;;;10.65;6.50;;;;;;;7.98;100.00;101272.69;4994109;28;20045;-76
2022/09/02 00:55:03;;;;;;;12.77;6.30;;;;;;;8.04;100.00;101287.31;5012390;28;20150;-76
2022/09/02 00:58:05;;;;;;;11.15;5.85;;;;;;;7.98;100.00;101277.22;4994410;28;20037;-77
2022/09/02 01:00:41;;;;;;;11.98;6.35;;;;;;;7.88;100.00;101271.88;5010342;28;20513;-75
2022/09/02 01:03:11;;;;;;;9.73;6.50;;;;;;;7.86;100.00;101277.38;5029620;28;20037;-76
2022/09/02 01:05:43;;;;;;;10.70;6.35;;;;;;;7.83;100.00;101277.69;5028158;28;20054;-77
2022/09/02 01:08:13;;;;;;;10.55;6.05;;;;;;;7.78;100.00;101273.72;5007420;28;20045;-77
2022/09/02 01:10:39;;;;;;;11.23;6.57;;;;;;;7.78;100.00;101274.59;5029779;28;20034;-76
2022/09/02 01:13:11;;;;;;;12.95;6.72;;;;;;;7.75;100.00;101266.00;5022509;28;20387;-76
2022/09/02 01:15:43;;;;;;;15.85;6.80;;;;;;;7.81;100.00;101276.13;4997542;28;20036;-77
2022/09/02 01:18:12;;;;;;;10.95;6.30;;;;;;;7.74;100.00;101254.44;5027893;28;20467;-77
2022/09/02 01:20:38;;;;;;;10.23;6.25;;;;;;;7.64;100.00;101243.75;5012082;28;20037;-76
2022/09/02 01:23:06;;;;;;;12.80;5.88;;;;;;;7.74;100.00;101257.13;5010206;28;20033;-77
2022/09/02 01:25:33;;;;;;;14.05;7.45;;;;;;;7.65;100.00;101264.19;4996808;28;20120;-77
2022/09/02 01:28:07;;;;;;;12.75;6.88;;;;;;;7.59;100.00;101255.88;5014954;28;20080;-77
2022/09/02 01:30:34;;;;;;;11.90;7.07;;;;;;;7.55;100.00;101260.69;5005965;28;20037;-77
2022/09/02 01:33:00;;;;;;;12.50;6.85;;;;;;;7.44;100.00;101251.00;5015801;28;20026;-76
2022/09/02 01:35:26;;;;;;;11.30;6.72;;;;;;;7.46;100.00;101258.84;5000093;28;20032;-77
2022/09/02 01:37:54;;;;;;;13.45;6.50;;;;;;;7.44;100.00;101253.66;5015892;28;20041;-76
2022/09/02 01:40:20;;;;;;;11.35;6.03;;;;;;;7.48;100.00;101254.22;4999697;28;20475;-75
2022/09/02 01:42:46;;;;;;;11.23;6.15;;;;;;;7.55;100.00;101254.50;5015126;28;20041;-77
2022/09/02 01:45:14;;;;;;;14.48;7.50;;;;;;;7.58;100.00;101251.53;5015347;28;20041;-77
2022/09/02 01:47:40;;;;;;;12.45;7.00;;;;;;;7.55;100.00;101252.66;5031187;28;20029;-76
2022/09/02 01:50:06;;;;;;;14.80;7.22;;;;;;;7.43;100.00;101238.59;5032610;28;20455;-75
2022/09/02 01:52:33;;;;;;;9.38;5.88;;;;;;;7.53;100.00;101238.56;4999771;28;20033;-76
2022/09/02 01:55:01;;;;;;;14.80;7.45;;;;;;;7.52;100.00;101244.94;5013082;28;20029;-76
2022/09/02 01:57:26;;;;;;;10.63;6.68;;;;;;;7.42;100.00;101228.03;5013654;28;20490;-75
2022/09/02 01:59:53;;;;;;;9.10;5.50;;;;;;;7.35;100.00;101230.44;5015290;28;20033;-76
2022/09/02 02:02:19;;;;;;;12.13;6.40;;;;;;;7.26;100.00;101233.97;4996679;28;20044;-77
2022/09/02 02:04:46;;;;;;;11.43;6.28;;;;;;;7.26;100.00;101233.97;5032255;28;20034;-76
2022/09/02 02:07:14;;;;;;;9.70;5.82;;;;;;;7.08;100.00;101209.78;4997955;28;20037;-75
2022/09/02 02:09:41;;;;;;;10.80;5.22;;;;;;;7.24;100.00;101233.28;5032022;28;20104;-76
2022/09/02 02:12:07;;;;;;;11.77;5.78;;;;;;;7.25;100.00;101243.84;5001423;28;20045;-76
2022/09/02 02:14:33;;;;;;;12.05;6.68;;;;;;;7.10;100.00;101223.03;5030553;28;20038;-76
2022/09/02 02:16:59;;;;;;;12.20;6.68;;;;;;;7.17;100.00;101226.78;5030444;28;20041;-75
2022/09/02 02:19:26;;;;;;;12.15;6.00;;;;;;;7.24;100.00;101234.13;4994990;28;20101;-77
2022/09/02 02:21:51;;;;;;;10.63;6.40;;;;;;;7.21;100.00;101220.19;5028674;28;20481;-77
2022/09/02 02:24:17;;;;;;;12.18;7.20;;;;;;;7.28;100.00;101226.66;5013515;28;20034;-76
2022/09/02 02:26:43;;;;;;;11.68;6.68;;;;;;;7.24;100.00;101219.91;5014062;28;20037;-76
2022/09/02 02:29:10;;;;;;;10.43;5.63;;;;;;;7.13;100.00;101209.38;5015376;28;20049;-76
2022/09/02 02:31:36;;;;;;;11.70;5.60;;;;;;;7.15;100.00;101221.59;5012515;28;20487;-77
2022/09/02 02:34:04;;;;;;;11.23;6.50;;;;;;;7.00;100.00;101210.50;5015325;28;20063;-75
2022/09/02 02:36:30;;;;;;;11.10;6.55;;;;;;;7.07;100.00;101228.66;4993698;28;20480;-75
2022/09/02 02:38:56;;;;;;;10.65;6.35;;;;;;;6.96;100.00;101227.81;5031075;28;20025;-75
2022/09/02 02:41:22;;;;;;;11.50;6.32;;;;;;;6.85;100.00;101208.38;4998109;28;20025;-76
2022/09/02 02:43:48;;;;;;;15.40;6.20;;;;;;;6.78;100.00;101202.75;5025895;28;20445;-76
2022/09/02 02:46:14;;;;;;;12.32;7.10;;;;;;;6.85;100.00;101214.56;5035619;28;20434;-76
2022/09/02 02:48:40;;;;;;;11.75;6.28;;;;;;;6.80;100.00;101211.47;5010882;28;20025;-76
2022/09/02 02:51:07;;;;;;;13.45;7.55;;;;;;;6.68;100.00;101202.75;5014703;28;20376;-75
2022/09/02 02:53:35;;;;;;;10.35;6.03;;;;;;;6.67;100.00;101205.56;4994140;28;20033;-76
2022/09/02 02:56:02;;;;;;;14.10;8.38;;;;;;;6.68;100.00;101200.06;5030389;28;20468;-77
2022/09/02 02:58:28;;;;;;;12.95;7.80;;;;;;;6.60;100.00;101191.91;5026737;28;20118;-77
2022/09/02 03:00:55;;;;;;;15.27;7.70;;;;;;;6.57;100.00;101192.19;4997692;28;20487;-77
2022/09/02 03:03:21;;;;;;;12.43;7.70;;;;;;;6.54;100.00;101196.00;5033300;28;20036;-76
2022/09/02 03:05:48;;;;;;;12.60;7.57;;;;;;;6.43;100.00;101189.91;4998449;28;20464;-77
2022/09/02 03:08:14;;;;;;;14.73;8.07;;;;;;;6.31;100.00;101183.88;5030255;28;20040;-77
2022/09/02 03:10:43;;;;;;;11.27;7.13;;;;;;;6.34;100.00;101188.94;5000876;28;20391;-77
2022/09/02 03:13:10;;;;;;;15.27;8.18;;;;;;;6.30;100.00;101184.84;5015266;28;20033;-77
2022/09/02 03:15:38;;;;;;;13.82;7.57;;;;;;;6.19;100.00;101185.78;5030494;28;20074;-77
2022/09/02 03:18:04;;;;;;;11.23;7.28;;;;;;;6.20;100.00;101170.63;5029819;28;20490;-76
2022/09/02 03:20:30;;;;;;;12.75;6.63;;;;;;;6.26;100.00;101176.25;4998579;28;20033;-77
2022/09/02 03:22:57;;;;;;;10.95;6.53;;;;;;;6.31;100.00;101181.19;4997757;28;20128;-76
2022/09/02 03:25:26;;;;;;;11.32;6.15;;;;;;;6.27;100.00;101177.09;5034565;28;20463;-77
2022/09/02 03:27:55;;;;;;;10.80;6.05;;;;;;;6.29;100.00;101172.47;5001651;28;20544;-77
2022/09/02 03:30:24;;;;;;;10.40;5.85;;;;;;;6.25;100.00;101176.41;5014250;28;20025;-75
2022/09/02 03:32:51;;;;;;;11.70;6.85;;;;;;;6.20;100.00;101167.97;5028888;28;20040;-77
2022/09/02 03:35:20;;;;;;;11.68;6.82;;;;;;;6.23;100.00;101173.03;5031746;28;20044;-76
2022/09/02 03:37:46;;;;;;;12.75;7.22;;;;;;;6.22;100.00;101163.31;5021158;28;20541;-77
2022/09/02 03:40:15;;;;;;;11.95;7.03;;;;;;;6.16;100.00;101160.19;5002009;28;20491;-76
2022/09/02 03:42:41;;;;;;;11.32;7.10;;;;;;;6.15;100.00;101158.53;5013530;28;20032;-75
2022/09/02 03:45:08;;;;;;;15.02;7.28;;;;;;;6.07;100.00;101158.38;5009680;28;20029;-76
2022/09/02 03:47:35;;;;;;;13.02;7.10;;;;;;;6.00;100.00;101146.53;4996927;28;20025;-76
2022/09/02 03:50:02;;;;;;;10.88;6.60;;;;;;;6.14;100.00;101159.53;5031592;28;20025;-76
2022/09/02 03:52:28;;;;;;;12.07;6.63;;;;;;;6.08;100.00;101140.53;5013256;28;20033;-76
2022/09/02 03:54:54;;;;;;;8.60;6.53;;;;;;;6.09;100.00;101148.41;5013064;28;20561;-76
2022/09/02 03:57:21;;;;;;;11.55;6.75;;;;;;;6.09;100.00;101148.41;5026406;28;20051;-76
2022/09/02 03:59:47;;;;;;;12.43;6.35;;;;;;;6.08;100.00;101138.69;4998660;28;20479;-76
2022/09/02 04:02:13;;;;;;;12.20;6.72;;;;;;;6.09;100.00;101136.88;4999670;28;20037;-75
2022/09/02 04:04:42;;;;;;;11.55;6.47;;;;;;;6.09;100.00;101140.41;5004389;28;20080;-76
2022/09/02 04:07:08;;;;;;;10.38;6.57;;;;;;;6.09;100.00;101137.72;5027287;28;20112;-76
2022/09/02 04:09:33;;;;;;;10.57;6.07;;;;;;;6.00;100.00;101125.19;4996352;28;20176;-77
2022/09/02 04:11:59;;;;;;;10.80;6.22;;;;;;;5.69;100.00;101087.88;5003508;28;20548;-75
2022/09/02 04:14:25;;;;;;;9.80;5.72;;;;;;;5.85;100.00;101123.88;5029785;28;20017;-77
2022/09/02 04:16:51;;;;;;;10.18;5.43;;;;;;;5.74;100.00;101122.13;5010205;28;20036;-77
2022/09/02 04:19:16;;;;;;;8.70;5.35;;;;;;;5.59;100.00;101119.00;5010249;28;20025;-76
2022/09/02 04:21:42;;;;;;;8.30;5.00;;;;;;;5.57;100.00;101117.44;4996381;28;20124;-78
2022/09/02 04:24:10;;;;;;;7.80;4.85;;;;;;;5.51;100.00;101110.84;4997426;28;20037;-77
2022/09/02 04:26:36;;;;;;;11.25;5.53;;;;;;;5.33;100.00;101102.63;5028905;28;20034;-76
2022/09/02 04:29:02;;;;;;;9.25;5.18;;;;;;;5.47;100.00;101109.41;5011804;28;20375;-76
2022/09/02 04:31:30;;;;;;;9.57;6.07;;;;;;;5.40;100.00;101098.44;5015965;28;20090;-76
2022/09/02 04:33:57;;;;;;;8.20;5.32;;;;;;;5.51;100.00;101108.16;5012818;28;20055;-76
2022/09/02 04:36:23;;;;;;;9.93;5.70;;;;;;;5.52;100.00;101109.84;4997337;28;20502;-76
2022/09/02 04:38:49;;;;;;;9.48;6.13;;;;;;;5.56;100.00;101105.06;4995920;28;20061;-76
2022/09/02 04:41:19;;;;;;;10.38;6.40;;;;;;;5.52;100.00;101096.50;4997973;28;20071;-76
2022/09/02 04:43:45;;;;;;;9.93;6.18;;;;;;;5.58;100.00;101101.28;5030056;28;20025;-76
2022/09/02 04:46:12;;;;;;;12.20;6.18;;;;;;;5.61;100.00;101102.84;4995293;28;20102;-77
2022/09/02 04:48:39;;;;;;;11.93;7.35;;;;;;;5.60;100.00;101103.84;5027697;28;20126;-76
2022/09/02 04:51:07;;;;;;;12.10;6.95;;;;;;;5.46;100.00;101083.72;5025680;28;20036;-76
2022/09/02 04:53:33;;;;;;;11.15;7.03;;;;;;;5.50;100.00;101102.00;5015552;28;20041;-76
2022/09/02 04:55:59;;;;;;;11.63;7.00;;;;;;;5.46;100.00;101097.06;5015370;28;20048;-76
2022/09/02 04:58:26;;;;;;;13.20;7.18;;;;;;;5.46;100.00;101105.91;5010186;28;20468;-76
2022/09/02 05:00:52;;;;;;;12.95;7.53;;;;;;;5.45;100.00;101098.88;5025093;28;20090;-76
2022/09/02 05:03:18;;;;;;;17.92;8.55;;;;;;;5.43;100.00;101095.50;5005548;28;20434;-76
2022/09/02 05:05:44;;;;;;;14.18;7.85;;;;;;;5.38;100.00;101083.56;5032010;28;20041;-78
2022/09/02 05:08:11;;;;;;;14.85;8.02;;;;;;;5.43;100.00;101090.16;5010656;28;20038;-76
2022/09/02 05:10:39;;;;;;;16.13;8.70;;;;;;;5.46;100.00;101089.91;4999256;28;20107;-75
2022/09/02 05:13:05;;;;;;;15.38;9.55;;;;;;;5.53;100.00;101092.00;5010058;28;20487;-76
2022/09/02 05:15:30;;;;;;;15.65;9.45;;;;;;;5.44;100.00;101072.34;5000522;28;20188;-76
2022/09/02 05:17:56;;;;;;;15.05;9.48;;;;;;;5.53;100.00;101086.69;5032558;28;20045;-76
2022/09/02 05:20:22;;;;;;;14.65;8.13;;;;;;;5.59;100.00;101071.00;4999177;28;20064;-76
2022/09/02 05:22:48;;;;;;;16.88;7.80;;;;;;;5.67;100.00;101068.47;5000909;28;20029;-76
2022/09/02 05:25:14;;;;;;;14.85;8.88;;;;;;;5.77;100.00;101075.66;5015623;28;20060;-75
2022/09/02 05:27:40;;;;;;;12.32;7.68;;;;;;;5.73;100.00;101064.41;5014098;28;20030;-76
2022/09/02 05:30:06;;;;;;;13.32;7.57;;;;;;;5.93;100.00;101073.31;5003043;28;20041;-77
2022/09/02 05:32:32;;;;;;;13.70;7.55;;;;;;;6.11;100.00;101071.69;5031018;28;20084;-77
2022/09/02 05:34:58;;;;;;;16.45;7.22;;;;;;;6.20;100.00;101070.00;4998232;28;20414;-77
2022/09/02 05:37:25;;;;;;;10.27;6.40;;;;;;;6.00;100.00;101020.25;5028312;28;20533;-79
2022/09/02 05:39:51;;;;;;;11.07;6.63;;;;;;;6.34;100.00;101058.06;5013090;28;20033;-76
2022/09/02 05:42:19;;;;;;;13.90;8.02;;;;;;;6.38;100.00;101056.81;5014684;28;20505;-76
2022/09/02 05:44:45;;;;;;;10.98;6.65;;;;;;;6.30;100.00;101043.31;5045291;28;20372;-78
2022/09/02 05:47:11;;;;;;;10.65;6.78;;;;;;;6.30;100.00;101046.81;5014882;28;20029;-77
2022/09/02 05:49:37;;;;;;;13.15;6.18;;;;;;;6.24;100.00;101050.03;4999816;28;20040;-76
2022/09/02 05:52:08;;;;;;;12.98;6.75;;;;;;;6.13;100.00;101045.69;5020429;28;20116;-80
2022/09/02 05:54:36;;;;;;;9.65;6.00;;;;;;;6.09;100.00;101052.31;5014823;28;20034;-79
2022/09/02 05:57:08;;;;;;;11.07;6.65;;;;;;;6.14;100.00;101067.91;4996196;28;20548;-76
2022/09/02 05:59:40;;;;;;;12.88;5.28;;;;;;;6.09;100.00;101051.47;5014935;28;20034;-76
2022/09/02 06:02:05;;;;;;;9.38;5.75;;;;;;;6.07;100.00;101054.25;5000030;28;20053;-77
2022/09/02 06:04:31;;;;;;;9.07;5.55;;;;;;;6.05;100.00;101044.69;5016094;28;20052;-77
2022/09/02 06:06:57;;;;;;;10.93;6.18;;;;;;;5.98;100.00;101036.41;4996934;28;20498;-78
2022/09/02 06:09:23;;;;;;;9.27;6.45;;;;;;;6.16;100.00;101064.09;5013233;28;20034;-77
2022/09/02 06:11:50;;;;;;;11.85;5.65;;;;;;;6.21;100.00;101065.50;5014451;28;20060;-79
2022/09/02 06:14:19;;;;;;;13.02;6.90;;;;;;;6.24;100.00;101060.72;5031873;28;20060;-78
2022/09/02 06:16:46;;;;;;;13.70;6.20;;;;;;;6.30;100.00;101048.66;5027065;28;20610;-79
2022/09/02 06:19:12;;;;;;;11.15;6.60;;;;;;;6.45;100.00;101052.56;5033062;28;20045;-77
2022/09/02 06:21:38;;;;;;;11.45;5.97;;;;;;;6.59;100.00;101057.50;4999405;28;20508;-77
2022/09/02 06:24:06;;;;;;;13.57;7.85;;;;;;;6.74;100.00;101051.69;4996286;28;20033;-77
2022/09/02 06:26:32;;;;;;;11.95;6.57;;;;;;;6.97;100.00;101065.56;5010117;28;20037;-79
2022/09/02 06:28:57;;;;;;;12.50;7.32;;;;;;;7.10;100.00;101038.50;5013970;28;20144;-78
2022/09/02 06:31:23;;;;;;;14.43;7.63;;;;;;;7.30;100.00;101045.44;4994039;28;20472;-77
2022/09/02 06:33:54;;;;;;;13.90;7.93;;;;;;;7.40;100.00;101043.56;5020142;28;20033;-77
2022/09/02 06:36:21;;;;;;;20.67;7.78;;;;;;;7.44;100.00;101042.31;4999041;28;20048;-76
2022/09/02 06:38:51;;;;;;;12.60;7.50;;;;;;;7.60;100.00;101043.50;5033778;28;20026;-76
2022/09/02 06:41:23;;;;;;;13.82;7.07;;;;;;;7.72;100.00;101047.63;5013675;28;20073;-77
2022/09/02 06:43:49;;;;;;;12.15;8.00;;;;;;;7.78;100.00;101035.47;4996519;28;20034;-78
2022/09/02 06:46:18;;;;;;;13.70;7.15;;;;;;;7.72;100.00;101012.84;5026883;28;20095;-78
2022/09/02 06:48:45;;;;;;;9.77;6.95;;;;;;;8.08;100.00;101045.84;5030488;28;20034;-77
2022/09/02 06:51:23;;;;;;;14.10;7.30;;;;;;;8.27;100.00;101042.16;4998989;28;20505;-77
2022/09/02 06:53:49;;;;;;;12.77;6.38;;;;;;;8.46;100.00;101018.91;5000769;28;20052;-78
2022/09/02 06:56:15;;;;;;;10.55;6.68;;;;;;;8.76;100.00;101025.69;5011145;28;20412;-78
2022/09/02 06:58:41;;;;;;;10.45;6.45;;;;;;;9.03;100.00;101032.72;4996416;28;20122;-76
2022/09/02 07:01:07;;;;;;;9.38;5.88;;;;;;;9.15;100.00;101020.69;5012702;28;20486;-75
2022/09/02 07:06:17;;;;;;;11.35;7.63;;;;;;;9.97;100.00;101037.06;5018185;28;20043;-77
2022/09/02 07:08:43;;;;;;;13.05;7.60;;;;;;;10.49;100.00;101034.13;5029652;28;20076;-77
2022/09/02 07:11:21;;;;;;;14.50;8.52;;;;;;;11.01;100.00;101038.28;5011692;28;20087;-77
2022/09/02 07:13:47;;;;;;;12.20;8.38;;;;;;;11.65;100.00;101028.28;5057892;28;20034;-79
2022/09/02 07:16:14;;;;;;;12.38;6.80;;;;;;;12.20;100.00;101028.28;5029572;28;20041;-75
2022/09/02 07:18:40;;;;;;;14.18;9.10;;;;;;;13.14;100.00;101035.00;5013627;28;20136;-76
2022/09/02 07:21:10;;;;;;;13.63;8.82;;;;;;;13.18;100.00;101030.09;4997343;28;20443;-78
2022/09/02 07:23:36;;;;;;;18.33;9.65;;;;;;;13.34;100.00;101023.69;5013668;28;20029;-75
2022/09/02 07:26:02;;;;;;;14.68;9.52;;;;;;;13.20;100.00;101036.97;5028436;28;20059;-76
2022/09/02 07:28:28;;;;;;;10.73;6.53;;;;;;;13.14;100.00;101034.16;5036238;28;20037;-77
2022/09/02 07:30:54;;;;;;;13.80;9.38;;;;;;;13.77;100.00;101024.63;5012902;28;20596;-75
2022/09/02 07:33:21;;;;;;;18.75;9.93;;;;;;;15.13;94.95;101041.66;5029377;28;20061;-74
2022/09/02 07:35:47;;;;;;;18.23;9.93;;;;;;;16.12;89.35;101036.94;5013009;28;20411;-75
2022/09/02 07:38:13;;;;;;;16.55;10.05;;;;;;;16.34;88.56;101026.72;4997719;28;20368;-76
2022/09/02 07:40:42;;;;;;;16.98;10.63;;;;;;;17.54;84.36;101016.53;4996805;28;20129;-76
2022/09/02 07:43:11;;;;;;;17.58;8.85;;;;;;;18.32;77.94;101010.88;4995515;28;20037;-76
2022/09/02 07:45:37;;;;;;;16.80;9.60;;;;;;;18.86;74.33;101020.28;5026245;28;20348;-76
2022/09/02 07:48:07;;;;;;;19.48;10.48;;;;;;;17.67;76.27;101002.03;4992840;28;20044;-76
2022/09/02 07:50:34;;;;;;;16.00;10.35;;;;;;;16.86;80.72;101012.34;5009915;28;20045;-77
2022/09/02 07:53:06;;;;;;;15.70;9.52;;;;;;;16.20;84.46;101020.44;5027298;28;20055;-76
2022/09/02 07:55:34;;;;;;;20.65;10.93;;;;;;;15.83;86.69;101004.50;5011257;28;20026;-79
2022/09/02 07:58:00;;;;;;;17.52;10.52;;;;;;;15.33;88.05;100990.31;5012466;28;20029;-75
2022/09/02 08:00:26;;;;;;;17.00;10.95;;;;;;;14.91;91.28;101005.72;5011098;28;20033;-74
2022/09/02 08:02:56;;;;;;;23.63;12.35;;;;;;;14.49;93.10;100998.50;5024804;28;20673;-80
2022/09/02 08:05:22;;;;;;;27.17;12.80;;;;;;;14.19;95.51;100995.97;5005846;28;20128;-77
2022/09/02 08:07:48;;;;;;;25.00;13.05;;;;;;;13.93;97.12;100971.38;5027620;28;20029;-75
2022/09/02 08:10:15;;;;;;;21.05;11.98;;;;;;;13.98;98.29;100958.94;5008632;28;20128;-76
2022/09/02 08:12:49;;;;;;;19.33;11.05;;;;;;;14.27;97.32;100982.31;5013711;28;20033;-76
2022/09/02 08:15:16;;;;;;;18.88;11.38;;;;;;;15.43;93.35;100981.84;5011990;28;20025;-75
2022/09/02 08:17:43;;;;;;;20.02;11.77;;;;;;;17.16;85.87;100971.09;5012772;28;20041;-76
2022/09/02 08:20:10;;;;;;;21.15;13.65;;;;;;;18.62;79.04;100981.09;4996107;28;20044;-75
2022/09/02 08:22:36;;;;;;;18.75;10.82;;;;;;;20.45;71.87;100978.34;5011456;28;20373;-75
2022/09/02 08:25:10;;;;;;;14.65;9.75;;;;;;;21.34;66.04;100977.38;5016128;28;20033;-75
2022/09/02 08:27:36;;;;;;;17.10;10.18;;;;;;;21.81;63.06;100971.78;4995296;28;20136;-79
2022/09/02 08:30:08;;;;;;;14.38;8.73;;;;;;;22.42;60.77;100977.50;5012411;28;20068;-75
2022/09/02 08:32:42;;;;;;;11.60;7.80;;;;;;;20.90;64.77;100972.31;5013030;28;20049;-76
2022/09/02 08:35:10;;;;;;;13.75;8.27;;;;;;;19.71;69.64;100967.75;5028949;28;20048;-77
2022/09/02 08:37:36;;;;;;;11.77;7.40;;;;;;;19.43;72.70;100971.03;5012631;28;20071;-74
2022/09/02 08:40:05;;;;;;;11.48;7.88;;;;;;;19.24;73.60;100967.50;4994940;28;20030;-77
2022/09/02 08:42:42;;;;;;;13.27;8.25;;;;;;;19.25;74.55;100969.13;5012179;28;20426;-78
2022/09/02 08:45:10;;;;;;;17.02;8.20;;;;;;;19.41;74.77;100966.84;4995966;28;20083;-76
2022/09/02 08:47:36;;;;;;;15.98;7.90;;;;;;;19.35;75.17;100959.59;4997040;28;20041;-75
2022/09/02 08:50:06;;;;;;;11.52;8.00;;;;;;;19.30;76.35;100961.09;5013226;28;20038;-78
2022/09/02 08:52:42;;;;;;;9.93;7.25;;;;;;;19.89;73.69;100957.84;5012424;28;20033;-78
2022/09/02 08:55:14;;;;;;;9.43;7.43;;;;;;;21.51;68.88;100948.19;4995137;28;20372;-77
2022/09/02 08:57:41;;;;;;;13.67;8.10;;;;;;;24.03;61.23;100943.38;4995330;28;20033;-77
2022/09/02 09:00:08;;;;;;;11.27;7.85;;;;;;;26.53;53.92;100949.09;5016876;28;20498;-75
2022/09/02 09:03:01;;;;;;;11.73;7.75;;;;;;;26.69;50.98;100947.13;4996597;28;20053;-77
2022/09/02 09:05:40;;;;;;;12.70;7.03;;;;;;;24.90;54.44;100943.19;4995584;28;20033;-77
2022/09/02 09:08:12;;;;;;;10.93;8.15;;;;;;;24.91;55.52;100948.44;5004511;28;20300;-78
2022/09/02 09:11:09;;;;;;;12.95;6.65;;;;;;;24.60;54.54;100941.09;5029097;28;20116;-78
2022/09/02 09:13:53;;;;;;;11.90;7.15;;;;;;;23.78;58.50;100937.63;5028435;28;20033;-76
2022/09/02 09:16:39;;;;;;;11.73;8.07;;;;;;;23.27;60.38;100929.66;5022571;28;20037;-76
2022/09/02 09:19:11;;;;;;;20.88;13.80;;;;;;;22.79;62.12;100926.53;5009326;28;20050;-77
2022/09/02 09:21:51;;;;;;;26.23;15.60;;;;;;;22.53;64.71;100922.59;5028344;28;20033;-77
2022/09/02 09:24:35;;;;;;;8.90;6.72;;;;;;;22.11;65.37;100920.28;4996624;28;20052;-76
2022/09/02 09:27:03;;;;;;;10.10;7.45;;;;;;;21.38;66.87;100915.66;5006899;28;20039;-76
2022/09/02 09:29:35;;;;;;;11.35;7.97;;;;;;;20.77;69.51;100907.00;4994732;28;20045;-76
2022/09/02 09:32:01;;;;;;;10.40;6.57;;;;;;;20.33;72.55;100898.34;5000079;28;20495;-75
2022/09/02 09:34:52;;;;;;;9.50;6.38;;;;;;;20.16;74.26;100899.03;5011998;28;20413;-75
2022/09/02 09:37:36;;;;;;;10.63;6.47;;;;;;;20.09;74.82;100897.50;5011620;28;20041;-75
2022/09/02 09:40:20;;;;;;;9.68;6.63;;;;;;;19.91;73.55;100882.03;5007877;28;20072;-76
2022/09/02 09:42:48;;;;;;;8.88;6.82;;;;;;;19.73;72.92;100897.41;5009354;28;20061;-76
2022/09/02 09:45:37;;;;;;;10.13;7.10;;;;;;;19.63;74.08;100896.28;5014503;28;20072;-76
2022/09/02 09:48:16;;;;;;;12.10;7.93;;;;;;;19.67;73.96;100892.06;5013092;28;20064;-75
2022/09/02 09:50:43;;;;;;;10.10;6.75;;;;;;;19.81;72.02;100876.31;5026885;28;20471;-76
2022/09/02 09:53:19;;;;;;;13.65;7.15;;;;;;;20.11;72.02;100882.53;4998657;28;20118;-76
2022/09/02 09:56:14;;;;;;;9.10;5.90;;;;;;;20.36;69.83;100876.84;5000044;28;20601;-75
2022/09/02 09:58:40;;;;;;;8.00;5.20;;;;;;;20.57;68.66;100880.91;5029668;28;20037;-75
2022/09/02 10:01:22;;;;;;;9.65;6.05;;;;;;;20.81;67.98;100872.66;5032351;28;20037;-76
2022/09/02 10:03:53;;;;;;;8.20;6.13;;;;;;;21.06;66.18;100865.00;4997504;28;20492;-75
2022/09/02 10:06:35;;;;;;;8.48;5.20;;;;;;;21.38;65.81;100855.47;5014394;28;20033;-76
2022/09/02 10:09:02;;;;;;;8.32;5.53;;;;;;;21.47;64.85;100852.13;5026886;28;20038;-76
2022/09/02 10:11:33;;;;;;;6.75;4.70;;;;;;;21.26;64.26;100831.72;5013404;28;20077;-77
2022/09/02 10:14:01;;;;;;;8.80;5.85;;;;;;;21.05;65.83;100844.19;5003938;28;20037;-75
2022/09/02 10:16:33;;;;;;;8.48;6.07;;;;;;;20.63;66.82;100843.59;5019929;28;20033;-75
2022/09/02 10:19:08;;;;;;;7.60;4.43;;;;;;;20.49;66.67;100837.53;4999054;28;20034;-75
2022/09/02 10:21:58;;;;;;;5.10;3.70;;;;;;;20.41;66.22;100835.16;5019185;28;20037;-76
2022/09/02 10:25:01;;;;;;;6.40;5.47;;;;;;;20.27;66.35;100833.72;4995102;28;20045;-76
2022/09/02 10:27:59;;;;;;;6.35;3.05;;;;;;;19.93;65.97;100828.06;5029773;28;20060;-76
2022/09/02 10:30:25;;;;;;;3.97;3.08;;;;;;;19.63;66.59;100826.19;5033947;28;20027;-75
2022/09/02 10:33:36;;;;;;;6.15;3.40;;;;;;;19.54;68.15;100819.41;5017368;28;20027;-75
2022/09/02 10:36:10;;;;;;;6.57;3.10;;;;;;;19.50;68.21;100819.06;5029559;28;20129;-75
2022/09/02 10:38:41;;;;;;;4.50;3.40;;;;;;;19.42;68.72;100805.72;4998998;28;20033;-75
2022/09/02 10:41:30;;;;;;;5.32;3.42;;;;;;;19.41;68.81;100814.16;5032627;28;20021;-74
2022/09/02 10:44:20;;;;;;;4.70;3.33;;;;;;;19.54;68.87;100805.78;5018049;28;20453;-74
2022/09/02 10:47:01;;;;;;;5.90;3.17;;;;;;;19.75;67.18;100788.88;5029019;28;20104;-74
2022/09/02 10:49:33;;;;;;;6.10;3.30;;;;;;;20.02;66.53;100799.31;5019871;28;20428;-76
2022/09/02 10:52:03;;;;;;;7.25;2.90;;;;;;;20.19;65.09;100799.44;5015676;28;20038;-75
2022/09/02 10:54:48;;;;;;;4.93;3.20;;;;;;;20.10;64.66;100793.50;5013705;28;20034;-77
2022/09/02 10:57:17;;;;;;;5.18;2.45;;;;;;;20.09;64.14;100789.13;5030622;28;20041;-75
2022/09/02 10:59:50;;;;;;;3.40;2.70;;;;;;;20.15;63.51;100784.59;5011853;28;20025;-76
2022/09/02 11:02:37;;;;;;;3.50;2.72;;;;;;;20.30;63.12;100781.41;4998315;28;20459;-76
2022/09/02 11:05:24;;;;;;;4.55;3.20;;;;;;;20.61;62.54;100759.16;5025906;28;20523;-76
2022/09/02 11:08:25;;;;;;;3.53;2.53;;;;;;;20.96;60.53;100768.28;5014193;28;20053;-75
2022/09/02 11:11:13;;;;;;;5.80;3.37;;;;;;;20.82;60.89;100743.97;5026932;28;20045;-75
2022/09/02 11:13:51;;;;;;;3.97;2.95;;;;;;;20.75;60.84;100743.28;5036046;28;20029;-75
2022/09/02 11:16:36;;;;;;;6.63;3.22;;;;;;;20.99;59.71;100754.97;5034986;28;20187;-75
2022/09/02 11:19:34;;;;;;;5.53;3.35;;;;;;;20.92;60.89;100748.81;5012569;28;21581;-75
2022/09/02 11:22:06;;;;;;;4.68;3.17;;;;;;;21.18;60.70;100738.34;5014644;28;20044;-75
2022/09/02 11:24:48;;;;;;;4.50;3.13;;;;;;;21.70;56.54;100740.88;5023218;28;20064;-76
2022/09/02 11:27:39;;;;;;;3.20;2.20;;;;;;;22.21;55.27;100746.28;4998523;28;20325;-75
2022/09/02 11:30:12;;;;;;;3.15;2.72;;;;;;;22.86;52.92;100722.66;5023343;28;20367;-76
2022/09/02 11:32:43;;;;;;;4.75;3.10;;;;;;;23.23;51.47;100717.28;5010401;28;20124;-76
2022/09/02 11:35:20;;;;;;;4.03;2.90;;;;;;;23.24;50.40;100688.78;5014713;28;20235;-76